sensor_id;sensor_type;location;lat;lon;timestamp;temperature;humidity
9271;DHT22;4673;53.458;9.940;2023-03-24T00:00:08;10.20;99.90
9271;DHT22;4673;53.458;9.940;2023-03-24T00:02:40;10.20;99.90
9271;DHT22;4673;53.458;9.940;2023-03-24T00:05:18;10.20;99.90
9271;DHT22;4673;53.458;9.940;2023-03-24T00:07:44;10.10;99.90
9271;DHT22;4673;53.458;9.940;2023-03-24T00:10:13;10.10;99.90
9271;DHT22;4673;53.458;9.940;2023-03-24T00:12:40;10.20;99.90
9271;DHT22;4673;53.458;9.940;2023-03-24T00:15:10;10.10;99.90
9271;DHT22;4673;53.458;9.940;2023-03-24T00:17:37;10.20;99.90
9271;DHT22;4673;53.458;9.940;2023-03-24T00:20:06;10.20;99.90
9271;DHT22;4673;53.458;9.940;2023-03-24T00:22:40;10.20;99.90
9271;DHT22;4673;53.458;9.940;2023-03-24T00:25:08;10.20;99.90
9271;DHT22;4673;53.458;9.940;2023-03-24T00:27:33;10.20;99.90
9271;DHT22;4673;53.458;9.940;2023-03-24T00:30:04;10.20;99.90
9271;DHT22;4673;53.458;9.940;2023-03-24T00:32:31;10.10;99.90
9271;DHT22;4673;53.458;9.940;2023-03-24T00:34:57;10.10;99.90
9271;DHT22;4673;53.458;9.940;2023-03-24T00:37:23;10.20;99.90
9271;DHT22;4673;53.458;9.940;2023-03-24T00:39:49;10.20;99.90
9271;DHT22;4673;53.458;9.940;2023-03-24T00:42:15;10.10;99.90
9271;DHT22;4673;53.458;9.940;2023-03-24T00:44:42;10.10;99.90
9271;DHT22;4673;53.458;9.940;2023-03-24T00:47:09;10.10;99.90
9271;DHT22;4673;53.458;9.940;2023-03-24T00:49:35;10.10;99.90
9271;DHT22;4673;53.458;9.940;2023-03-24T00:52:15;10.10;99.90
9271;DHT22;4673;53.458;9.940;2023-03-24T00:54:45;10.10;99.90
9271;DHT22;4673;53.458;9.940;2023-03-24T00:57:13;10.00;99.90
9271;DHT22;4673;53.458;9.940;2023-03-24T00:59:39;10.00;99.90
9271;DHT22;4673;53.458;9.940;2023-03-24T01:02:15;10.00;99.90
9271;DHT22;4673;53.458;9.940;2023-03-24T01:04:44;10.00;99.90
9271;DHT22;4673;53.458;9.940;2023-03-24T01:07:12;10.00;99.90
9271;DHT22;4673;53.458;9.940;2023-03-24T01:09:46;10.00;99.90
9271;DHT22;4673;53.458;9.940;2023-03-24T01:12:29;10.00;99.90
9271;DHT22;4673;53.458;9.940;2023-03-24T01:14:57;10.00;99.90
9271;DHT22;4673;53.458;9.940;2023-03-24T01:17:24;10.00;99.90
9271;DHT22;4673;53.458;9.940;2023-03-24T01:19:51;9.90;99.90
9271;DHT22;4673;53.458;9.940;2023-03-24T01:22:17;9.90;99.90
9271;DHT22;4673;53.458;9.940;2023-03-24T01:24:45;9.90;99.90
9271;DHT22;4673;53.458;9.940;2023-03-24T01:27:11;9.90;99.90
9271;DHT22;4673;53.458;9.940;2023-03-24T01:29:38;10.00;99.90
9271;DHT22;4673;53.458;9.940;2023-03-24T01:32:04;9.90;99.90
9271;DHT22;4673;53.458;9.940;2023-03-24T01:34:30;9.90;99.90
9271;DHT22;4673;53.458;9.940;2023-03-24T01:36:56;9.90;99.90
9271;DHT22;4673;53.458;9.940;2023-03-24T01:39:22;9.90;99.90
9271;DHT22;4673;53.458;9.940;2023-03-24T01:41:48;9.90;99.90
9271;DHT22;4673;53.458;9.940;2023-03-24T01:44:44;9.90;99.90
9271;DHT22;4673;53.458;9.940;2023-03-24T01:47:10;9.70;99.90
9271;DHT22;4673;53.458;9.940;2023-03-24T01:52:18;9.80;99.90
9271;DHT22;4673;53.458;9.940;2023-03-24T01:54:49;9.80;99.90
9271;DHT22;4673;53.458;9.940;2023-03-24T01:57:27;9.80;99.90
9271;DHT22;4673;53.458;9.940;2023-03-24T01:59:56;9.80;99.90
9271;DHT22;4673;53.458;9.940;2023-03-24T02:02:25;9.80;99.90
9271;DHT22;4673;53.458;9.940;2023-03-24T02:04:57;9.80;99.90
9271;DHT22;4673;53.458;9.940;2023-03-24T02:10:05;9.80;99.90
9271;DHT22;4673;53.458;9.940;2023-03-24T02:12:32;9.90;99.90
9271;DHT22;4673;53.458;9.940;2023-03-24T02:14:58;9.80;99.90
9271;DHT22;4673;53.458;9.940;2023-03-24T02:43:06;9.80;99.90
9271;DHT22;4673;53.458;9.940;2023-03-24T02:50:49;9.80;99.90
9271;DHT22;4673;53.458;9.940;2023-03-24T02:56:57;9.80;99.90
9271;DHT22;4673;53.458;9.940;2023-03-24T03:01:31;9.90;99.90
9271;DHT22;4673;53.458;9.940;2023-03-24T03:04:07;9.80;99.90
9271;DHT22;4673;53.458;9.940;2023-03-24T03:06:36;9.80;99.90
9271;DHT22;4673;53.458;9.940;2023-03-24T03:09:07;9.80;99.90
9271;DHT22;4673;53.458;9.940;2023-03-24T03:11:34;9.90;99.90
9271;DHT22;4673;53.458;9.940;2023-03-24T03:14:23;9.90;99.90
9271;DHT22;4673;53.458;9.940;2023-03-24T03:17:04;9.90;99.90
9271;DHT22;4673;53.458;9.940;2023-03-24T03:19:40;9.80;99.90
9271;DHT22;4673;53.458;9.940;2023-03-24T03:22:12;9.90;99.90
9271;DHT22;4673;53.458;9.940;2023-03-24T03:24:41;9.90;99.90
9271;DHT22;4673;53.458;9.940;2023-03-24T03:27:15;9.90;99.90
9271;DHT22;4673;53.458;9.940;2023-03-24T03:29:46;9.90;99.90
9271;DHT22;4673;53.458;9.940;2023-03-24T03:32:25;9.90;99.90
9271;DHT22;4673;53.458;9.940;2023-03-24T03:35:15;9.90;99.90
9271;DHT22;4673;53.458;9.940;2023-03-24T03:40:36;9.90;99.90
9271;DHT22;4673;53.458;9.940;2023-03-24T03:43:04;10.00;99.90
9271;DHT22;4673;53.458;9.940;2023-03-24T03:45:35;9.90;99.90
9271;DHT22;4673;53.458;9.940;2023-03-24T03:48:01;10.00;99.90
9271;DHT22;4673;53.458;9.940;2023-03-24T03:50:27;10.00;99.90
9271;DHT22;4673;53.458;9.940;2023-03-24T03:52:53;10.00;99.90
9271;DHT22;4673;53.458;9.940;2023-03-24T03:55:19;10.00;99.90
9271;DHT22;4673;53.458;9.940;2023-03-24T03:57:45;10.10;99.90
9271;DHT22;4673;53.458;9.940;2023-03-24T04:00:17;10.10;99.90
9271;DHT22;4673;53.458;9.940;2023-03-24T04:05:48;10.20;99.90
9271;DHT22;4673;53.458;9.940;2023-03-24T04:11:16;10.20;99.90
9271;DHT22;4673;53.458;9.940;2023-03-24T04:24:38;10.30;99.90
9271;DHT22;4673;53.458;9.940;2023-03-24T04:27:12;10.30;99.90
9271;DHT22;4673;53.458;9.940;2023-03-24T04:29:50;10.40;99.90
9271;DHT22;4673;53.458;9.940;2023-03-24T04:35:12;10.40;99.90
9271;DHT22;4673;53.458;9.940;2023-03-24T04:37:45;10.40;99.90
9271;DHT22;4673;53.458;9.940;2023-03-24T04:40:14;10.40;99.90
9271;DHT22;4673;53.458;9.940;2023-03-24T04:42:44;10.40;99.90
9271;DHT22;4673;53.458;9.940;2023-03-24T04:45:12;10.40;99.90
9271;DHT22;4673;53.458;9.940;2023-03-24T04:47:53;10.40;99.90
9271;DHT22;4673;53.458;9.940;2023-03-24T04:50:30;10.40;99.90
9271;DHT22;4673;53.458;9.940;2023-03-24T04:52:56;10.50;99.90
9271;DHT22;4673;53.458;9.940;2023-03-24T04:58:21;10.50;99.90
9271;DHT22;4673;53.458;9.940;2023-03-24T05:00:47;10.60;99.90
9271;DHT22;4673;53.458;9.940;2023-03-24T05:03:14;10.60;99.90
9271;DHT22;4673;53.458;9.940;2023-03-24T05:05:41;10.60;99.90
9271;DHT22;4673;53.458;9.940;2023-03-24T05:08:07;10.60;99.90
9271;DHT22;4673;53.458;9.940;2023-03-24T05:10:33;10.60;99.90
9271;DHT22;4673;53.458;9.940;2023-03-24T05:12:59;10.60;99.90
9271;DHT22;4673;53.458;9.940;2023-03-24T05:15:25;10.60;99.90
9271;DHT22;4673;53.458;9.940;2023-03-24T05:17:51;10.60;99.90
9271;DHT22;4673;53.458;9.940;2023-03-24T05:20:17;10.60;99.90
9271;DHT22;4673;53.458;9.940;2023-03-24T05:22:43;10.70;99.90
9271;DHT22;4673;53.458;9.940;2023-03-24T05:25:09;10.70;99.90
9271;DHT22;4673;53.458;9.940;2023-03-24T05:27:35;10.60;99.90
9271;DHT22;4673;53.458;9.940;2023-03-24T05:30:02;10.60;99.90
9271;DHT22;4673;53.458;9.940;2023-03-24T05:32:28;10.70;99.90
9271;DHT22;4673;53.458;9.940;2023-03-24T05:34:54;10.70;99.90
9271;DHT22;4673;53.458;9.940;2023-03-24T05:37:19;10.70;99.90
9271;DHT22;4673;53.458;9.940;2023-03-24T05:39:45;10.70;99.90
9271;DHT22;4673;53.458;9.940;2023-03-24T05:42:11;10.80;99.90
9271;DHT22;4673;53.458;9.940;2023-03-24T05:44:37;10.80;99.90
9271;DHT22;4673;53.458;9.940;2023-03-24T05:47:03;10.80;99.90
9271;DHT22;4673;53.458;9.940;2023-03-24T05:49:29;10.90;99.90
9271;DHT22;4673;53.458;9.940;2023-03-24T05:51:54;10.80;99.90
9271;DHT22;4673;53.458;9.940;2023-03-24T05:54:20;10.80;99.90
9271;DHT22;4673;53.458;9.940;2023-03-24T05:56:47;10.90;99.90
9271;DHT22;4673;53.458;9.940;2023-03-24T05:59:12;10.90;99.90
9271;DHT22;4673;53.458;9.940;2023-03-24T06:01:38;10.80;99.90
9271;DHT22;4673;53.458;9.940;2023-03-24T06:04:07;10.90;99.90
9271;DHT22;4673;53.458;9.940;2023-03-24T06:06:32;10.90;99.90
9271;DHT22;4673;53.458;9.940;2023-03-24T06:08:59;10.90;99.90
9271;DHT22;4673;53.458;9.940;2023-03-24T06:11:28;10.90;99.90
9271;DHT22;4673;53.458;9.940;2023-03-24T06:13:54;10.90;99.90
9271;DHT22;4673;53.458;9.940;2023-03-24T06:16:28;10.90;99.90
9271;DHT22;4673;53.458;9.940;2023-03-24T06:18:54;11.00;99.90
9271;DHT22;4673;53.458;9.940;2023-03-24T06:21:20;10.90;99.90
9271;DHT22;4673;53.458;9.940;2023-03-24T06:23:46;11.00;99.90
9271;DHT22;4673;53.458;9.940;2023-03-24T06:26:13;11.00;99.90
9271;DHT22;4673;53.458;9.940;2023-03-24T06:28:39;11.00;99.90
9271;DHT22;4673;53.458;9.940;2023-03-24T06:31:07;11.10;99.90
9271;DHT22;4673;53.458;9.940;2023-03-24T06:33:41;11.10;99.90
9271;DHT22;4673;53.458;9.940;2023-03-24T06:36:08;11.10;99.90
9271;DHT22;4673;53.458;9.940;2023-03-24T06:38:34;11.20;99.90
9271;DHT22;4673;53.458;9.940;2023-03-24T06:41:03;11.20;99.90
9271;DHT22;4673;53.458;9.940;2023-03-24T06:43:29;11.20;99.90
9271;DHT22;4673;53.458;9.940;2023-03-24T06:45:56;11.20;99.90
9271;DHT22;4673;53.458;9.940;2023-03-24T06:48:22;11.20;99.90
9271;DHT22;4673;53.458;9.940;2023-03-24T06:50:48;11.20;99.90
9271;DHT22;4673;53.458;9.940;2023-03-24T06:53:14;11.30;99.90
9271;DHT22;4673;53.458;9.940;2023-03-24T06:55:40;11.30;99.90
9271;DHT22;4673;53.458;9.940;2023-03-24T06:58:05;11.40;99.90
9271;DHT22;4673;53.458;9.940;2023-03-24T07:00:31;11.40;99.90
9271;DHT22;4673;53.458;9.940;2023-03-24T07:02:57;11.50;99.90
9271;DHT22;4673;53.458;9.940;2023-03-24T07:05:22;11.60;99.90
9271;DHT22;4673;53.458;9.940;2023-03-24T07:07:48;11.70;99.90
9271;DHT22;4673;53.458;9.940;2023-03-24T07:10:14;11.70;99.90
9271;DHT22;4673;53.458;9.940;2023-03-24T07:12:40;11.60;99.90
9271;DHT22;4673;53.458;9.940;2023-03-24T07:15:07;11.50;99.90
9271;DHT22;4673;53.458;9.940;2023-03-24T07:17:34;11.50;99.90
9271;DHT22;4673;53.458;9.940;2023-03-24T07:19:59;11.50;99.90
9271;DHT22;4673;53.458;9.940;2023-03-24T07:22:25;11.40;99.90
9271;DHT22;4673;53.458;9.940;2023-03-24T07:24:51;11.40;99.90
9271;DHT22;4673;53.458;9.940;2023-03-24T07:27:17;11.50;99.90
9271;DHT22;4673;53.458;9.940;2023-03-24T07:29:42;11.60;99.90
9271;DHT22;4673;53.458;9.940;2023-03-24T07:32:08;11.70;99.90
9271;DHT22;4673;53.458;9.940;2023-03-24T07:34:34;11.60;99.90
9271;DHT22;4673;53.458;9.940;2023-03-24T07:37:01;11.50;99.90
9271;DHT22;4673;53.458;9.940;2023-03-24T07:39:27;11.50;99.90
9271;DHT22;4673;53.458;9.940;2023-03-24T07:41:52;11.50;99.90
9271;DHT22;4673;53.458;9.940;2023-03-24T07:44:18;11.50;99.90
9271;DHT22;4673;53.458;9.940;2023-03-24T07:46:44;11.50;99.90
9271;DHT22;4673;53.458;9.940;2023-03-24T07:49:10;11.60;99.90
9271;DHT22;4673;53.458;9.940;2023-03-24T07:51:36;11.40;99.90
9271;DHT22;4673;53.458;9.940;2023-03-24T07:54:02;11.40;99.90
9271;DHT22;4673;53.458;9.940;2023-03-24T07:56:27;11.30;99.90
9271;DHT22;4673;53.458;9.940;2023-03-24T07:58:53;11.30;99.90
9271;DHT22;4673;53.458;9.940;2023-03-24T08:01:19;11.30;99.90
9271;DHT22;4673;53.458;9.940;2023-03-24T08:03:44;11.30;99.90
9271;DHT22;4673;53.458;9.940;2023-03-24T08:06:13;11.30;99.90
9271;DHT22;4673;53.458;9.940;2023-03-24T08:08:39;11.10;99.90
9271;DHT22;4673;53.458;9.940;2023-03-24T08:11:05;11.10;99.90
9271;DHT22;4673;53.458;9.940;2023-03-24T08:13:30;11.10;99.90
9271;DHT22;4673;53.458;9.940;2023-03-24T08:15:56;11.10;99.90
9271;DHT22;4673;53.458;9.940;2023-03-24T08:18:23;11.10;99.90
9271;DHT22;4673;53.458;9.940;2023-03-24T08:20:53;11.10;99.90
9271;DHT22;4673;53.458;9.940;2023-03-24T08:23:20;11.20;99.90
9271;DHT22;4673;53.458;9.940;2023-03-24T08:25:45;11.40;99.90
9271;DHT22;4673;53.458;9.940;2023-03-24T08:28:12;11.60;99.90
9271;DHT22;4673;53.458;9.940;2023-03-24T08:30:38;11.80;99.90
9271;DHT22;4673;53.458;9.940;2023-03-24T08:33:12;12.00;99.40
9271;DHT22;4673;53.458;9.940;2023-03-24T08:35:39;12.20;97.90
9271;DHT22;4673;53.458;9.940;2023-03-24T08:38:06;12.30;95.60
9271;DHT22;4673;53.458;9.940;2023-03-24T08:40:33;12.30;93.10
9271;DHT22;4673;53.458;9.940;2023-03-24T08:43:01;12.40;91.00
9271;DHT22;4673;53.458;9.940;2023-03-24T08:45:30;12.50;92.30
9271;DHT22;4673;53.458;9.940;2023-03-24T08:47:58;12.60;91.60
9271;DHT22;4673;53.458;9.940;2023-03-24T08:50:26;12.70;89.00
9271;DHT22;4673;53.458;9.940;2023-03-24T08:52:54;12.70;88.00
9271;DHT22;4673;53.458;9.940;2023-03-24T08:55:20;12.70;86.50
9271;DHT22;4673;53.458;9.940;2023-03-24T08:57:46;12.60;84.40
9271;DHT22;4673;53.458;9.940;2023-03-24T09:00:12;12.60;85.10
9271;DHT22;4673;53.458;9.940;2023-03-24T09:02:43;12.70;85.80
9271;DHT22;4673;53.458;9.940;2023-03-24T09:05:09;12.50;84.00
9271;DHT22;4673;53.458;9.940;2023-03-24T09:07:36;12.50;82.40
9271;DHT22;4673;53.458;9.940;2023-03-24T09:10:03;12.50;84.00
9271;DHT22;4673;53.458;9.940;2023-03-24T09:12:30;12.70;84.10
9271;DHT22;4673;53.458;9.940;2023-03-24T09:14:55;12.70;81.80
9271;DHT22;4673;53.458;9.940;2023-03-24T09:17:21;12.60;82.40
9271;DHT22;4673;53.458;9.940;2023-03-24T09:19:47;12.60;82.80
9271;DHT22;4673;53.458;9.940;2023-03-24T09:22:12;12.70;83.10
9271;DHT22;4673;53.458;9.940;2023-03-24T09:24:38;12.80;83.20
9271;DHT22;4673;53.458;9.940;2023-03-24T09:27:03;13.00;80.90
9271;DHT22;4673;53.458;9.940;2023-03-24T09:29:29;13.20;79.90
9271;DHT22;4673;53.458;9.940;2023-03-24T09:31:56;13.30;78.20
9271;DHT22;4673;53.458;9.940;2023-03-24T09:34:23;13.50;79.30
9271;DHT22;4673;53.458;9.940;2023-03-24T09:36:49;13.60;77.70
9271;DHT22;4673;53.458;9.940;2023-03-24T09:39:15;13.50;75.40
9271;DHT22;4673;53.458;9.940;2023-03-24T09:41:43;13.50;77.40
9271;DHT22;4673;53.458;9.940;2023-03-24T09:49:39;13.20;75.20
9271;DHT22;4673;53.458;9.940;2023-03-24T09:52:09;13.00;75.60
9271;DHT22;4673;53.458;9.940;2023-03-24T09:54:53;12.90;76.20
9271;DHT22;4673;53.458;9.940;2023-03-24T09:57:32;13.00;75.90
9271;DHT22;4673;53.458;9.940;2023-03-24T10:00:01;13.20;75.10
9271;DHT22;4673;53.458;9.940;2023-03-24T10:02:28;13.10;75.30
9271;DHT22;4673;53.458;9.940;2023-03-24T10:04:55;13.20;75.70
9271;DHT22;4673;53.458;9.940;2023-03-24T10:07:49;12.90;73.50
9271;DHT22;4673;53.458;9.940;2023-03-24T10:21:39;13.40;72.70
9271;DHT22;4673;53.458;9.940;2023-03-24T10:24:12;13.40;71.30
9271;DHT22;4673;53.458;9.940;2023-03-24T10:26:50;13.60;72.10
9271;DHT22;4673;53.458;9.940;2023-03-24T10:29:29;14.10;71.70
9271;DHT22;4673;53.458;9.940;2023-03-24T10:32:17;14.10;67.90
9271;DHT22;4673;53.458;9.940;2023-03-24T10:34:52;14.40;67.50
9271;DHT22;4673;53.458;9.940;2023-03-24T10:37:19;14.50;67.50
9271;DHT22;4673;53.458;9.940;2023-03-24T10:39:48;14.60;66.10
9271;DHT22;4673;53.458;9.940;2023-03-24T10:42:17;14.70;65.30
9271;DHT22;4673;53.458;9.940;2023-03-24T10:44:46;14.70;66.10
9271;DHT22;4673;53.458;9.940;2023-03-24T10:47:13;14.80;66.00
9271;DHT22;4673;53.458;9.940;2023-03-24T10:49:51;14.80;65.10
9271;DHT22;4673;53.458;9.940;2023-03-24T10:52:17;14.90;64.90
9271;DHT22;4673;53.458;9.940;2023-03-24T10:54:53;14.70;64.50
9271;DHT22;4673;53.458;9.940;2023-03-24T10:57:19;14.70;64.50
9271;DHT22;4673;53.458;9.940;2023-03-24T11:00:08;14.70;64.60
9271;DHT22;4673;53.458;9.940;2023-03-24T11:02:43;14.80;64.00
9271;DHT22;4673;53.458;9.940;2023-03-24T11:05:17;14.60;63.30
9271;DHT22;4673;53.458;9.940;2023-03-24T11:07:45;14.60;64.00
9271;DHT22;4673;53.458;9.940;2023-03-24T11:10:17;14.70;63.50
9271;DHT22;4673;53.458;9.940;2023-03-24T11:15:28;14.40;62.10
9271;DHT22;4673;53.458;9.940;2023-03-24T11:17:59;14.40;62.50
9271;DHT22;4673;53.458;9.940;2023-03-24T11:23:37;14.40;62.50
9271;DHT22;4673;53.458;9.940;2023-03-24T11:25:48;14.30;61.80
9271;DHT22;4673;53.458;9.940;2023-03-24T11:28:20;14.10;61.60
9271;DHT22;4673;53.458;9.940;2023-03-24T11:30:51;14.10;61.80
9271;DHT22;4673;53.458;9.940;2023-03-24T11:35:52;14.20;60.10
9271;DHT22;4673;53.458;9.940;2023-03-24T11:38:19;14.20;59.70
9271;DHT22;4673;53.458;9.940;2023-03-24T11:40:58;14.10;59.90
9271;DHT22;4673;53.458;9.940;2023-03-24T11:43:25;14.10;60.00
9271;DHT22;4673;53.458;9.940;2023-03-24T11:46:04;14.10;60.40
9271;DHT22;4673;53.458;9.940;2023-03-24T11:48:45;14.00;60.40
9271;DHT22;4673;53.458;9.940;2023-03-24T11:51:38;13.90;61.20
9271;DHT22;4673;53.458;9.940;2023-03-24T11:54:07;13.80;60.90
9271;DHT22;4673;53.458;9.940;2023-03-24T11:56:53;13.80;61.20
9271;DHT22;4673;53.458;9.940;2023-03-24T12:02:38;13.80;61.40
9271;DHT22;4673;53.458;9.940;2023-03-24T12:07:44;14.00;60.50
9271;DHT22;4673;53.458;9.940;2023-03-24T12:18:29;14.70;54.70
9271;DHT22;4673;53.458;9.940;2023-03-24T12:24:05;14.90;50.20
9271;DHT22;4673;53.458;9.940;2023-03-24T12:26:33;14.80;47.90
9271;DHT22;4673;53.458;9.940;2023-03-24T12:40:44;15.50;43.70
9271;DHT22;4673;53.458;9.940;2023-03-24T12:43:30;15.40;44.00
9271;DHT22;4673;53.458;9.940;2023-03-24T12:49:26;15.40;43.30
9271;DHT22;4673;53.458;9.940;2023-03-24T12:57:04;16.00;45.80
9271;DHT22;4673;53.458;9.940;2023-03-24T12:59:40;16.00;44.90
9271;DHT22;4673;53.458;9.940;2023-03-24T13:04:55;15.40;45.20
9271;DHT22;4673;53.458;9.940;2023-03-24T13:07:24;15.30;47.30
9271;DHT22;4673;53.458;9.940;2023-03-24T13:10:16;15.40;48.00
9271;DHT22;4673;53.458;9.940;2023-03-24T13:13:09;15.40;47.00
9271;DHT22;4673;53.458;9.940;2023-03-24T13:15:58;15.30;45.60
9271;DHT22;4673;53.458;9.940;2023-03-24T13:20:54;14.80;47.60
9271;DHT22;4673;53.458;9.940;2023-03-24T13:23:38;14.70;48.00
9271;DHT22;4673;53.458;9.940;2023-03-24T13:26:29;14.60;49.00
9271;DHT22;4673;53.458;9.940;2023-03-24T13:31:32;14.30;48.00
9271;DHT22;4673;53.458;9.940;2023-03-24T13:34:01;14.30;49.30
9271;DHT22;4673;53.458;9.940;2023-03-24T13:37:13;14.30;49.70
9271;DHT22;4673;53.458;9.940;2023-03-24T13:39:42;14.00;49.70
9271;DHT22;4673;53.458;9.940;2023-03-24T13:42:34;13.90;49.70
9271;DHT22;4673;53.458;9.940;2023-03-24T13:45:05;13.90;48.90
9271;DHT22;4673;53.458;9.940;2023-03-24T13:53:35;14.10;42.80
9271;DHT22;4673;53.458;9.940;2023-03-24T13:56:03;14.10;42.60
9271;DHT22;4673;53.458;9.940;2023-03-24T14:01:34;14.30;39.30
9271;DHT22;4673;53.458;9.940;2023-03-24T14:04:21;14.30;36.50
9271;DHT22;4673;53.458;9.940;2023-03-24T14:06:56;14.30;34.00
9271;DHT22;4673;53.458;9.940;2023-03-24T14:09:30;14.30;35.50
9271;DHT22;4673;53.458;9.940;2023-03-24T14:14:32;14.50;35.50
9271;DHT22;4673;53.458;9.940;2023-03-24T14:17:11;14.50;35.40
9271;DHT22;4673;53.458;9.940;2023-03-24T14:19:38;14.50;36.80
9271;DHT22;4673;53.458;9.940;2023-03-24T14:22:11;14.60;37.90
9271;DHT22;4673;53.458;9.940;2023-03-24T14:24:39;14.60;36.80
9271;DHT22;4673;53.458;9.940;2023-03-24T14:27:29;14.70;36.70
9271;DHT22;4673;53.458;9.940;2023-03-24T14:29:59;14.80;35.50
9271;DHT22;4673;53.458;9.940;2023-03-24T14:32:26;14.90;33.70
9271;DHT22;4673;53.458;9.940;2023-03-24T14:34:55;14.90;34.90
9271;DHT22;4673;53.458;9.940;2023-03-24T14:37:23;14.90;33.50
9271;DHT22;4673;53.458;9.940;2023-03-24T14:39:50;14.80;32.20
9271;DHT22;4673;53.458;9.940;2023-03-24T14:44:55;14.60;33.00
9271;DHT22;4673;53.458;9.940;2023-03-24T14:47:33;14.60;33.20
9271;DHT22;4673;53.458;9.940;2023-03-24T14:50:02;14.50;32.10
9271;DHT22;4673;53.458;9.940;2023-03-24T14:52:40;14.40;33.60
9271;DHT22;4673;53.458;9.940;2023-03-24T14:55:13;14.30;32.50
9271;DHT22;4673;53.458;9.940;2023-03-24T14:57:51;14.30;34.10
9271;DHT22;4673;53.458;9.940;2023-03-24T15:00:39;14.20;34.30
9271;DHT22;4673;53.458;9.940;2023-03-24T15:06:14;14.20;34.80
9271;DHT22;4673;53.458;9.940;2023-03-24T15:08:49;14.20;35.00
9271;DHT22;4673;53.458;9.940;2023-03-24T15:11:18;14.10;34.10
9271;DHT22;4673;53.458;9.940;2023-03-24T15:13:54;14.10;35.10
9271;DHT22;4673;53.458;9.940;2023-03-24T15:16:28;14.00;33.40
9271;DHT22;4673;53.458;9.940;2023-03-24T15:18:56;13.90;34.00
9271;DHT22;4673;53.458;9.940;2023-03-24T15:23:49;13.70;36.40
9271;DHT22;4673;53.458;9.940;2023-03-24T15:26:15;13.60;37.40
9271;DHT22;4673;53.458;9.940;2023-03-24T15:28:43;13.70;37.70
9271;DHT22;4673;53.458;9.940;2023-03-24T15:31:09;13.70;37.30
9271;DHT22;4673;53.458;9.940;2023-03-24T15:33:41;13.80;37.80
9271;DHT22;4673;53.458;9.940;2023-03-24T15:36:21;13.90;38.70
9271;DHT22;4673;53.458;9.940;2023-03-24T15:38:50;14.00;38.40
9271;DHT22;4673;53.458;9.940;2023-03-24T15:41:20;14.00;38.20
9271;DHT22;4673;53.458;9.940;2023-03-24T15:43:49;14.00;38.70
9271;DHT22;4673;53.458;9.940;2023-03-24T15:46:29;14.10;39.40
9271;DHT22;4673;53.458;9.940;2023-03-24T15:48:57;14.30;39.70
9271;DHT22;4673;53.458;9.940;2023-03-24T15:51:49;14.40;39.60
9271;DHT22;4673;53.458;9.940;2023-03-24T15:54:44;14.40;40.20
9271;DHT22;4673;53.458;9.940;2023-03-24T15:57:21;14.20;40.50
9271;DHT22;4673;53.458;9.940;2023-03-24T15:59:54;14.20;41.80
9271;DHT22;4673;53.458;9.940;2023-03-24T16:02:34;14.20;41.30
9271;DHT22;4673;53.458;9.940;2023-03-24T16:10:35;14.40;41.70
9271;DHT22;4673;53.458;9.940;2023-03-24T16:13:16;14.30;41.60
9271;DHT22;4673;53.458;9.940;2023-03-24T16:15:45;14.30;42.10
9271;DHT22;4673;53.458;9.940;2023-03-24T16:18:16;14.20;42.50
9271;DHT22;4673;53.458;9.940;2023-03-24T16:20:44;14.00;42.80
9271;DHT22;4673;53.458;9.940;2023-03-24T16:23:11;13.90;43.20
9271;DHT22;4673;53.458;9.940;2023-03-24T16:25:38;13.70;44.00
9271;DHT22;4673;53.458;9.940;2023-03-24T16:28:04;13.60;44.90
9271;DHT22;4673;53.458;9.940;2023-03-24T16:30:35;13.50;45.80
9271;DHT22;4673;53.458;9.940;2023-03-24T16:33:03;13.40;46.20
9271;DHT22;4673;53.458;9.940;2023-03-24T16:35:29;13.30;47.00
9271;DHT22;4673;53.458;9.940;2023-03-24T16:37:55;13.10;47.60
9271;DHT22;4673;53.458;9.940;2023-03-24T16:42:53;12.90;49.70
9271;DHT22;4673;53.458;9.940;2023-03-24T16:45:18;12.80;50.00
9271;DHT22;4673;53.458;9.940;2023-03-24T16:47:44;12.70;50.90
9271;DHT22;4673;53.458;9.940;2023-03-24T16:52:51;12.60;51.70
9271;DHT22;4673;53.458;9.940;2023-03-24T16:55:17;12.50;52.30
9271;DHT22;4673;53.458;9.940;2023-03-24T16:57:43;12.50;52.40
9271;DHT22;4673;53.458;9.940;2023-03-24T17:00:09;12.50;53.00
9271;DHT22;4673;53.458;9.940;2023-03-24T17:02:36;12.40;53.50
9271;DHT22;4673;53.458;9.940;2023-03-24T17:05:17;12.40;54.70
9271;DHT22;4673;53.458;9.940;2023-03-24T17:07:44;12.40;56.30
9271;DHT22;4673;53.458;9.940;2023-03-24T17:10:10;12.30;56.90
9271;DHT22;4673;53.458;9.940;2023-03-24T17:12:36;12.20;58.10
9271;DHT22;4673;53.458;9.940;2023-03-24T17:15:02;12.20;58.70
9271;DHT22;4673;53.458;9.940;2023-03-24T17:17:28;12.10;59.20
9271;DHT22;4673;53.458;9.940;2023-03-24T17:19:53;12.00;60.10
9271;DHT22;4673;53.458;9.940;2023-03-24T17:22:21;12.00;60.60
9271;DHT22;4673;53.458;9.940;2023-03-24T17:24:50;11.90;61.20
9271;DHT22;4673;53.458;9.940;2023-03-24T17:27:22;11.80;61.70
9271;DHT22;4673;53.458;9.940;2023-03-24T17:29:48;11.70;62.70
9271;DHT22;4673;53.458;9.940;2023-03-24T17:32:14;11.60;63.20
9271;DHT22;4673;53.458;9.940;2023-03-24T17:34:44;11.60;63.60
9271;DHT22;4673;53.458;9.940;2023-03-24T17:37:10;11.50;64.40
9271;DHT22;4673;53.458;9.940;2023-03-24T17:39:36;11.40;64.50
9271;DHT22;4673;53.458;9.940;2023-03-24T17:42:02;11.30;65.00
9271;DHT22;4673;53.458;9.940;2023-03-24T17:44:28;11.20;64.90
9271;DHT22;4673;53.458;9.940;2023-03-24T17:46:54;11.10;65.00
9271;DHT22;4673;53.458;9.940;2023-03-24T17:49:20;11.10;65.10
9271;DHT22;4673;53.458;9.940;2023-03-24T17:51:46;11.10;65.10
9271;DHT22;4673;53.458;9.940;2023-03-24T17:54:11;11.00;64.90
9271;DHT22;4673;53.458;9.940;2023-03-24T17:56:38;10.90;65.10
9271;DHT22;4673;53.458;9.940;2023-03-24T17:59:04;10.90;65.30
9271;DHT22;4673;53.458;9.940;2023-03-24T18:01:30;10.90;65.50
9271;DHT22;4673;53.458;9.940;2023-03-24T18:03:59;10.90;65.70
9271;DHT22;4673;53.458;9.940;2023-03-24T18:06:25;10.90;65.80
9271;DHT22;4673;53.458;9.940;2023-03-24T18:08:52;10.80;65.90
9271;DHT22;4673;53.458;9.940;2023-03-24T18:11:18;10.80;66.20
9271;DHT22;4673;53.458;9.940;2023-03-24T18:13:44;10.70;66.20
9271;DHT22;4673;53.458;9.940;2023-03-24T18:16:10;10.60;66.60
9271;DHT22;4673;53.458;9.940;2023-03-24T18:18:37;10.70;67.20
9271;DHT22;4673;53.458;9.940;2023-03-24T18:21:06;10.60;67.40
9271;DHT22;4673;53.458;9.940;2023-03-24T18:23:33;10.50;67.70
9271;DHT22;4673;53.458;9.940;2023-03-24T18:26:00;10.40;68.00
9271;DHT22;4673;53.458;9.940;2023-03-24T18:28:29;10.30;68.50
9271;DHT22;4673;53.458;9.940;2023-03-24T18:30:56;10.30;69.00
9271;DHT22;4673;53.458;9.940;2023-03-24T18:33:22;10.20;69.40
9271;DHT22;4673;53.458;9.940;2023-03-24T18:35:52;10.20;69.80
9271;DHT22;4673;53.458;9.940;2023-03-24T18:38:19;10.10;70.20
9271;DHT22;4673;53.458;9.940;2023-03-24T18:41:01;10.10;70.70
9271;DHT22;4673;53.458;9.940;2023-03-24T18:43:28;10.00;71.00
9271;DHT22;4673;53.458;9.940;2023-03-24T18:45:59;10.00;71.80
9271;DHT22;4673;53.458;9.940;2023-03-24T18:48:24;9.90;71.90
9271;DHT22;4673;53.458;9.940;2023-03-24T18:50:51;9.90;72.50
9271;DHT22;4673;53.458;9.940;2023-03-24T18:53:17;9.90;72.80
9271;DHT22;4673;53.458;9.940;2023-03-24T18:55:47;9.90;72.90
9271;DHT22;4673;53.458;9.940;2023-03-24T18:58:14;9.90;73.00
9271;DHT22;4673;53.458;9.940;2023-03-24T19:00:51;9.90;73.10
9271;DHT22;4673;53.458;9.940;2023-03-24T19:03:17;9.80;73.30
9271;DHT22;4673;53.458;9.940;2023-03-24T19:05:44;9.80;73.50
9271;DHT22;4673;53.458;9.940;2023-03-24T19:08:11;9.70;73.80